sensor_id;sensor_type;location;lat;lon;timestamp;P1;durP1;ratioP1;P2;durP2;ratioP2
57125;SDS011;43000;50.770;6.110;2022-07-23T00:01:26;13.50;;;11.32;;
57125;SDS011;43000;50.770;6.110;2022-07-23T00:03:54;20.30;;;12.45;;
57125;SDS011;43000;50.770;6.110;2022-07-23T00:06:21;17.58;;;14.35;;
57125;SDS011;43000;50.770;6.110;2022-07-23T00:08:48;15.40;;;12.32;;
57125;SDS011;43000;50.770;6.110;2022-07-23T00:11:15;17.75;;;13.57;;
57125;SDS011;43000;50.770;6.110;2022-07-23T00:13:42;18.85;;;14.32;;
57125;SDS011;43000;50.770;6.110;2022-07-23T00:16:09;16.35;;;12.57;;
57125;SDS011;43000;50.770;6.110;2022-07-23T00:18:37;20.80;;;15.75;;
57125;SDS011;43000;50.770;6.110;2022-07-23T00:21:04;23.55;;;18.65;;
57125;SDS011;43000;50.770;6.110;2022-07-23T00:23:31;25.40;;;19.75;;
57125;SDS011;43000;50.770;6.110;2022-07-23T00:25:57;22.83;;;16.65;;
57125;SDS011;43000;50.770;6.110;2022-07-23T00:28:24;19.27;;;15.65;;
57125;SDS011;43000;50.770;6.110;2022-07-23T00:30:51;29.95;;;19.80;;
57125;SDS011;43000;50.770;6.110;2022-07-23T00:33:17;28.52;;;22.35;;
57125;SDS011;43000;50.770;6.110;2022-07-23T00:35:45;25.00;;;18.48;;
57125;SDS011;43000;50.770;6.110;2022-07-23T00:38:12;29.60;;;20.88;;
57125;SDS011;43000;50.770;6.110;2022-07-23T00:40:39;30.95;;;20.70;;
57125;SDS011;43000;50.770;6.110;2022-07-23T00:43:06;24.33;;;18.85;;
57125;SDS011;43000;50.770;6.110;2022-07-23T00:45:33;20.83;;;16.90;;
57125;SDS011;43000;50.770;6.110;2022-07-23T00:48:00;26.20;;;19.40;;
57125;SDS011;43000;50.770;6.110;2022-07-23T00:50:27;22.83;;;18.40;;
57125;SDS011;43000;50.770;6.110;2022-07-23T00:52:55;29.35;;;23.23;;
57125;SDS011;43000;50.770;6.110;2022-07-23T00:55:23;29.95;;;17.80;;
57125;SDS011;43000;50.770;6.110;2022-07-23T00:57:49;29.60;;;22.83;;
57125;SDS011;43000;50.770;6.110;2022-07-23T01:00:17;37.53;;;26.58;;
57125;SDS011;43000;50.770;6.110;2022-07-23T01:02:43;33.40;;;23.23;;
57125;SDS011;43000;50.770;6.110;2022-07-23T01:05:11;35.67;;;25.63;;
57125;SDS011;43000;50.770;6.110;2022-07-23T01:07:38;31.70;;;24.10;;
57125;SDS011;43000;50.770;6.110;2022-07-23T01:10:06;28.52;;;22.92;;
57125;SDS011;43000;50.770;6.110;2022-07-23T01:12:54;30.40;;;23.15;;
57125;SDS011;43000;50.770;6.110;2022-07-23T01:15:21;28.20;;;22.00;;
57125;SDS011;43000;50.770;6.110;2022-07-23T01:17:48;30.10;;;22.45;;
57125;SDS011;43000;50.770;6.110;2022-07-23T01:20:15;33.88;;;27.30;;
57125;SDS011;43000;50.770;6.110;2022-07-23T01:22:43;31.83;;;23.48;;
57125;SDS011;43000;50.770;6.110;2022-07-23T01:25:10;32.65;;;25.45;;
57125;SDS011;43000;50.770;6.110;2022-07-23T01:27:37;30.20;;;22.23;;
57125;SDS011;43000;50.770;6.110;2022-07-23T01:30:04;25.90;;;19.70;;
57125;SDS011;43000;50.770;6.110;2022-07-23T01:32:31;28.42;;;23.15;;
57125;SDS011;43000;50.770;6.110;2022-07-23T01:34:58;27.38;;;19.92;;
57125;SDS011;43000;50.770;6.110;2022-07-23T01:37:25;24.15;;;20.55;;
57125;SDS011;43000;50.770;6.110;2022-07-23T01:39:53;24.17;;;19.33;;
57125;SDS011;43000;50.770;6.110;2022-07-23T01:42:19;22.90;;;17.60;;
57125;SDS011;43000;50.770;6.110;2022-07-23T01:44:46;23.27;;;15.48;;
57125;SDS011;43000;50.770;6.110;2022-07-23T01:47:13;33.13;;;25.52;;
57125;SDS011;43000;50.770;6.110;2022-07-23T01:49:41;20.63;;;16.98;;
57125;SDS011;43000;50.770;6.110;2022-07-23T01:52:07;27.42;;;19.65;;
57125;SDS011;43000;50.770;6.110;2022-07-23T01:54:36;21.15;;;18.05;;
57125;SDS011;43000;50.770;6.110;2022-07-23T01:57:05;28.70;;;21.17;;
57125;SDS011;43000;50.770;6.110;2022-07-23T01:59:32;40.67;;;27.40;;
57125;SDS011;43000;50.770;6.110;2022-07-23T02:01:59;23.58;;;19.40;;
57125;SDS011;43000;50.770;6.110;2022-07-23T02:04:26;21.23;;;18.23;;
57125;SDS011;43000;50.770;6.110;2022-07-23T02:06:53;33.70;;;24.02;;
57125;SDS011;43000;50.770;6.110;2022-07-23T02:09:20;23.90;;;20.48;;
57125;SDS011;43000;50.770;6.110;2022-07-23T02:11:47;26.08;;;18.38;;
57125;SDS011;43000;50.770;6.110;2022-07-23T02:14:15;24.13;;;18.35;;
57125;SDS011;43000;50.770;6.110;2022-07-23T02:16:42;35.72;;;24.00;;
57125;SDS011;43000;50.770;6.110;2022-07-23T02:19:09;22.80;;;17.83;;
57125;SDS011;43000;50.770;6.110;2022-07-23T02:21:36;38.38;;;26.65;;
57125;SDS011;43000;50.770;6.110;2022-07-23T02:24:03;23.92;;;17.23;;
57125;SDS011;43000;50.770;6.110;2022-07-23T02:26:30;27.48;;;21.10;;
57125;SDS011;43000;50.770;6.110;2022-07-23T02:28:59;27.55;;;18.38;;
57125;SDS011;43000;50.770;6.110;2022-07-23T02:31:27;29.02;;;20.52;;
57125;SDS011;43000;50.770;6.110;2022-07-23T02:33:54;30.55;;;23.13;;
57125;SDS011;43000;50.770;6.110;2022-07-23T02:36:21;34.40;;;23.17;;
57125;SDS011;43000;50.770;6.110;2022-07-23T02:38:48;34.50;;;24.33;;
57125;SDS011;43000;50.770;6.110;2022-07-23T02:41:15;32.78;;;25.35;;
57125;SDS011;43000;50.770;6.110;2022-07-23T02:43:42;38.00;;;26.00;;
57125;SDS011;43000;50.770;6.110;2022-07-23T02:46:08;35.95;;;25.77;;
57125;SDS011;43000;50.770;6.110;2022-07-23T02:48:36;31.98;;;23.23;;
57125;SDS011;43000;50.770;6.110;2022-07-23T02:51:03;30.73;;;22.65;;
57125;SDS011;43000;50.770;6.110;2022-07-23T02:53:30;40.30;;;27.77;;
57125;SDS011;43000;50.770;6.110;2022-07-23T02:55:56;48.45;;;31.08;;
57125;SDS011;43000;50.770;6.110;2022-07-23T02:58:23;29.17;;;22.20;;
57125;SDS011;43000;50.770;6.110;2022-07-23T03:00:52;38.65;;;25.90;;
57125;SDS011;43000;50.770;6.110;2022-07-23T03:03:18;48.72;;;33.35;;
57125;SDS011;43000;50.770;6.110;2022-07-23T03:05:47;35.55;;;25.65;;
57125;SDS011;43000;50.770;6.110;2022-07-23T03:08:14;32.72;;;22.80;;
57125;SDS011;43000;50.770;6.110;2022-07-23T03:10:41;30.67;;;21.88;;
57125;SDS011;43000;50.770;6.110;2022-07-23T03:13:08;42.95;;;29.05;;
57125;SDS011;43000;50.770;6.110;2022-07-23T03:15:34;27.42;;;21.23;;
57125;SDS011;43000;50.770;6.110;2022-07-23T03:18:01;46.35;;;25.85;;
57125;SDS011;43000;50.770;6.110;2022-07-23T03:20:29;23.70;;;18.65;;
57125;SDS011;43000;50.770;6.110;2022-07-23T03:22:58;39.72;;;27.92;;
57125;SDS011;43000;50.770;6.110;2022-07-23T03:25:24;35.80;;;24.80;;
57125;SDS011;43000;50.770;6.110;2022-07-23T03:27:51;35.30;;;24.98;;
57125;SDS011;43000;50.770;6.110;2022-07-23T03:30:18;34.55;;;27.58;;
57125;SDS011;43000;50.770;6.110;2022-07-23T03:32:45;32.88;;;24.95;;
57125;SDS011;43000;50.770;6.110;2022-07-23T03:35:11;29.67;;;22.92;;
57125;SDS011;43000;50.770;6.110;2022-07-23T03:37:38;28.98;;;22.48;;
57125;SDS011;43000;50.770;6.110;2022-07-23T03:40:07;34.65;;;25.60;;
57125;SDS011;43000;50.770;6.110;2022-07-23T03:42:34;34.55;;;25.02;;
57125;SDS011;43000;50.770;6.110;2022-07-23T03:45:02;23.02;;;19.20;;
57125;SDS011;43000;50.770;6.110;2022-07-23T03:47:29;22.30;;;17.05;;
57125;SDS011;43000;50.770;6.110;2022-07-23T03:49:56;23.33;;;18.92;;
57125;SDS011;43000;50.770;6.110;2022-07-23T03:52:23;22.10;;;18.27;;
57125;SDS011;43000;50.770;6.110;2022-07-23T03:54:49;31.95;;;24.23;;
57125;SDS011;43000;50.770;6.110;2022-07-23T03:57:17;21.33;;;18.13;;
57125;SDS011;43000;50.770;6.110;2022-07-23T03:59:44;21.70;;;18.17;;
57125;SDS011;43000;50.770;6.110;2022-07-23T04:02:15;25.67;;;21.02;;
57125;SDS011;43000;50.770;6.110;2022-07-23T04:04:42;30.17;;;22.10;;
57125;SDS011;43000;50.770;6.110;2022-07-23T04:07:09;33.30;;;23.75;;
57125;SDS011;43000;50.770;6.110;2022-07-23T04:09:35;28.00;;;20.95;;
57125;SDS011;43000;50.770;6.110;2022-07-23T04:12:05;30.67;;;23.75;;
57125;SDS011;43000;50.770;6.110;2022-07-23T04:14:34;22.65;;;20.15;;
57125;SDS011;43000;50.770;6.110;2022-07-23T04:17:01;24.17;;;17.98;;
57125;SDS011;43000;50.770;6.110;2022-07-23T04:19:28;22.50;;;19.05;;
57125;SDS011;43000;50.770;6.110;2022-07-23T04:21:55;24.77;;;20.80;;
57125;SDS011;43000;50.770;6.110;2022-07-23T04:24:22;23.88;;;19.92;;
57125;SDS011;43000;50.770;6.110;2022-07-23T04:26:48;29.08;;;22.98;;
57125;SDS011;43000;50.770;6.110;2022-07-23T04:29:15;29.70;;;21.40;;
57125;SDS011;43000;50.770;6.110;2022-07-23T04:31:43;33.22;;;24.30;;
57125;SDS011;43000;50.770;6.110;2022-07-23T04:34:10;29.77;;;22.73;;
57125;SDS011;43000;50.770;6.110;2022-07-23T04:36:36;39.97;;;26.83;;
57125;SDS011;43000;50.770;6.110;2022-07-23T04:39:03;48.40;;;31.60;;
57125;SDS011;43000;50.770;6.110;2022-07-23T04:41:30;40.25;;;29.73;;
57125;SDS011;43000;50.770;6.110;2022-07-23T04:43:56;47.70;;;30.40;;
57125;SDS011;43000;50.770;6.110;2022-07-23T04:46:23;33.22;;;25.85;;
57125;SDS011;43000;50.770;6.110;2022-07-23T04:48:51;37.72;;;29.08;;
57125;SDS011;43000;50.770;6.110;2022-07-23T04:51:18;38.22;;;27.55;;
57125;SDS011;43000;50.770;6.110;2022-07-23T04:53:44;34.90;;;28.92;;
57125;SDS011;43000;50.770;6.110;2022-07-23T04:56:11;49.13;;;30.45;;
57125;SDS011;43000;50.770;6.110;2022-07-23T04:58:37;37.03;;;27.40;;
57125;SDS011;43000;50.770;6.110;2022-07-23T05:01:04;42.58;;;28.63;;
57125;SDS011;43000;50.770;6.110;2022-07-23T05:03:31;47.20;;;29.40;;
57125;SDS011;43000;50.770;6.110;2022-07-23T05:05:59;36.95;;;26.83;;
57125;SDS011;43000;50.770;6.110;2022-07-23T05:08:25;45.08;;;30.50;;
57125;SDS011;43000;50.770;6.110;2022-07-23T05:10:52;52.05;;;33.47;;
57125;SDS011;43000;50.770;6.110;2022-07-23T05:13:19;57.20;;;37.90;;
57125;SDS011;43000;50.770;6.110;2022-07-23T05:15:45;42.25;;;29.13;;
57125;SDS011;43000;50.770;6.110;2022-07-23T05:18:12;59.05;;;39.00;;
57125;SDS011;43000;50.770;6.110;2022-07-23T05:20:39;41.40;;;27.60;;
57125;SDS011;43000;50.770;6.110;2022-07-23T05:23:07;47.50;;;28.95;;
57125;SDS011;43000;50.770;6.110;2022-07-23T05:25:34;43.65;;;28.88;;
57125;SDS011;43000;50.770;6.110;2022-07-23T05:28:00;93.28;;;46.33;;
57125;SDS011;43000;50.770;6.110;2022-07-23T05:30:27;61.13;;;31.67;;
57125;SDS011;43000;50.770;6.110;2022-07-23T05:32:53;53.38;;;31.15;;
57125;SDS011;43000;50.770;6.110;2022-07-23T05:35:20;43.47;;;28.95;;
57125;SDS011;43000;50.770;6.110;2022-07-23T05:37:47;58.55;;;36.95;;
57125;SDS011;43000;50.770;6.110;2022-07-23T05:40:15;39.45;;;27.50;;
57125;SDS011;43000;50.770;6.110;2022-07-23T05:42:41;43.45;;;29.30;;
57125;SDS011;43000;50.770;6.110;2022-07-23T05:45:08;40.72;;;28.83;;
57125;SDS011;43000;50.770;6.110;2022-07-23T05:47:39;49.92;;;35.50;;
57125;SDS011;43000;50.770;6.110;2022-07-23T05:50:07;43.72;;;31.77;;
57125;SDS011;43000;50.770;6.110;2022-07-23T05:52:34;55.03;;;35.05;;
57125;SDS011;43000;50.770;6.110;2022-07-23T05:55:01;62.25;;;38.08;;
57125;SDS011;43000;50.770;6.110;2022-07-23T05:57:29;68.13;;;41.10;;
57125;SDS011;43000;50.770;6.110;2022-07-23T05:59:55;49.70;;;33.78;;
57125;SDS011;43000;50.770;6.110;2022-07-23T06:02:22;51.47;;;36.35;;
57125;SDS011;43000;50.770;6.110;2022-07-23T06:04:49;52.42;;;34.80;;
57125;SDS011;43000;50.770;6.110;2022-07-23T06:07:15;42.53;;;30.40;;
57125;SDS011;43000;50.770;6.110;2022-07-23T06:09:42;39.97;;;30.58;;
57125;SDS011;43000;50.770;6.110;2022-07-23T06:12:08;42.13;;;32.15;;
57125;SDS011;43000;50.770;6.110;2022-07-23T06:14:36;38.05;;;28.52;;
57125;SDS011;43000;50.770;6.110;2022-07-23T06:17:03;37.13;;;28.88;;
57125;SDS011;43000;50.770;6.110;2022-07-23T06:19:30;36.95;;;28.98;;
57125;SDS011;43000;50.770;6.110;2022-07-23T06:21:56;38.92;;;32.28;;
57125;SDS011;43000;50.770;6.110;2022-07-23T06:24:23;48.95;;;36.08;;
57125;SDS011;43000;50.770;6.110;2022-07-23T06:26:49;40.85;;;29.90;;
57125;SDS011;43000;50.770;6.110;2022-07-23T06:29:16;34.40;;;26.02;;
57125;SDS011;43000;50.770;6.110;2022-07-23T06:31:44;38.20;;;29.17;;
57125;SDS011;43000;50.770;6.110;2022-07-23T06:34:10;47.15;;;33.42;;
57125;SDS011;43000;50.770;6.110;2022-07-23T06:36:37;38.72;;;31.40;;
57125;SDS011;43000;50.770;6.110;2022-07-23T06:39:04;32.05;;;27.65;;
57125;SDS011;43000;50.770;6.110;2022-07-23T06:41:30;29.42;;;25.30;;
57125;SDS011;43000;50.770;6.110;2022-07-23T06:43:57;40.28;;;32.15;;
57125;SDS011;43000;50.770;6.110;2022-07-23T06:46:23;32.50;;;26.88;;
57125;SDS011;43000;50.770;6.110;2022-07-23T06:48:51;34.70;;;27.95;;
57125;SDS011;43000;50.770;6.110;2022-07-23T06:51:18;35.83;;;29.05;;
57125;SDS011;43000;50.770;6.110;2022-07-23T06:53:45;38.15;;;29.92;;
57125;SDS011;43000;50.770;6.110;2022-07-23T06:56:11;38.38;;;29.48;;
57125;SDS011;43000;50.770;6.110;2022-07-23T06:58:38;28.63;;;23.58;;
57125;SDS011;43000;50.770;6.110;2022-07-23T07:01:05;34.60;;;27.02;;
57125;SDS011;43000;50.770;6.110;2022-07-23T07:03:31;28.45;;;23.35;;
57125;SDS011;43000;50.770;6.110;2022-07-23T07:05:59;32.83;;;29.27;;
57125;SDS011;43000;50.770;6.110;2022-07-23T07:08:27;32.42;;;26.15;;
57125;SDS011;43000;50.770;6.110;2022-07-23T07:10:54;31.25;;;26.63;;
57125;SDS011;43000;50.770;6.110;2022-07-23T07:13:20;35.92;;;29.88;;
57125;SDS011;43000;50.770;6.110;2022-07-23T07:15:47;29.90;;;25.95;;
57125;SDS011;43000;50.770;6.110;2022-07-23T07:18:14;29.20;;;25.25;;
57125;SDS011;43000;50.770;6.110;2022-07-23T07:20:40;33.90;;;27.95;;
57125;SDS011;43000;50.770;6.110;2022-07-23T07:23:08;25.17;;;21.75;;
57125;SDS011;43000;50.770;6.110;2022-07-23T07:25:35;26.55;;;23.23;;
57125;SDS011;43000;50.770;6.110;2022-07-23T07:28:02;27.80;;;20.73;;
57125;SDS011;43000;50.770;6.110;2022-07-23T07:30:28;22.65;;;18.90;;
57125;SDS011;43000;50.770;6.110;2022-07-23T07:32:55;23.50;;;20.83;;
57125;SDS011;43000;50.770;6.110;2022-07-23T07:35:22;23.58;;;19.23;;
57125;SDS011;43000;50.770;6.110;2022-07-23T07:37:48;24.42;;;21.00;;
57125;SDS011;43000;50.770;6.110;2022-07-23T07:40:16;25.90;;;17.42;;
57125;SDS011;43000;50.770;6.110;2022-07-23T07:42:46;24.17;;;21.10;;
57125;SDS011;43000;50.770;6.110;2022-07-23T07:45:12;25.10;;;22.40;;
57125;SDS011;43000;50.770;6.110;2022-07-23T07:47:40;28.52;;;23.55;;
57125;SDS011;43000;50.770;6.110;2022-07-23T07:50:07;30.63;;;21.80;;
57125;SDS011;43000;50.770;6.110;2022-07-23T07:52:34;28.63;;;18.85;;
57125;SDS011;43000;50.770;6.110;2022-07-23T07:55:01;32.63;;;22.80;;
57125;SDS011;43000;50.770;6.110;2022-07-23T07:57:29;31.67;;;23.27;;
57125;SDS011;43000;50.770;6.110;2022-07-23T07:59:56;26.20;;;21.10;;
57125;SDS011;43000;50.770;6.110;2022-07-23T08:02:22;32.63;;;23.20;;
57125;SDS011;43000;50.770;6.110;2022-07-23T08:04:49;29.63;;;19.65;;
57125;SDS011;43000;50.770;6.110;2022-07-23T08:07:15;21.02;;;18.00;;
57125;SDS011;43000;50.770;6.110;2022-07-23T08:09:42;23.73;;;19.88;;
57125;SDS011;43000;50.770;6.110;2022-07-23T08:12:08;30.55;;;19.58;;
57125;SDS011;43000;50.770;6.110;2022-07-23T08:14:36;21.13;;;17.27;;
57125;SDS011;43000;50.770;6.110;2022-07-23T08:17:03;25.05;;;20.88;;
57125;SDS011;43000;50.770;6.110;2022-07-23T08:19:29;19.60;;;16.98;;
57125;SDS011;43000;50.770;6.110;2022-07-23T08:21:56;21.13;;;18.90;;
57125;SDS011;43000;50.770;6.110;2022-07-23T08:24:23;19.50;;;17.60;;
57125;SDS011;43000;50.770;6.110;2022-07-23T08:26:49;20.80;;;17.45;;
57125;SDS011;43000;50.770;6.110;2022-07-23T08:29:16;19.55;;;15.45;;
57125;SDS011;43000;50.770;6.110;2022-07-23T08:31:43;23.40;;;17.05;;
57125;SDS011;43000;50.770;6.110;2022-07-23T08:34:10;18.77;;;13.13;;
57125;SDS011;43000;50.770;6.110;2022-07-23T08:36:37;13.23;;;11.82;;
57125;SDS011;43000;50.770;6.110;2022-07-23T08:39:03;16.30;;;12.98;;
57125;SDS011;43000;50.770;6.110;2022-07-23T08:41:30;19.27;;;17.15;;
57125;SDS011;43000;50.770;6.110;2022-07-23T08:43:56;18.40;;;16.40;;
57125;SDS011;43000;50.770;6.110;2022-07-23T08:46:26;19.63;;;15.55;;
57125;SDS011;43000;50.770;6.110;2022-07-23T08:48:55;17.65;;;14.55;;
57125;SDS011;43000;50.770;6.110;2022-07-23T08:51:23;21.92;;;17.40;;
57125;SDS011;43000;50.770;6.110;2022-07-23T08:53:52;15.85;;;14.15;;
57125;SDS011;43000;50.770;6.110;2022-07-23T08:56:21;19.80;;;17.52;;
57125;SDS011;43000;50.770;6.110;2022-07-23T08:58:48;24.00;;;13.90;;
57125;SDS011;43000;50.770;6.110;2022-07-23T09:01:14;14.90;;;13.00;;
57125;SDS011;43000;50.770;6.110;2022-07-23T09:03:41;18.38;;;13.57;;
57125;SDS011;43000;50.770;6.110;2022-07-23T09:06:11;16.45;;;12.45;;
57125;SDS011;43000;50.770;6.110;2022-07-23T09:08:38;16.25;;;14.23;;
57125;SDS011;43000;50.770;6.110;2022-07-23T09:11:06;18.30;;;12.60;;
57125;SDS011;43000;50.770;6.110;2022-07-23T09:13:35;15.85;;;14.15;;
57125;SDS011;43000;50.770;6.110;2022-07-23T09:16:05;12.98;;;11.60;;
57125;SDS011;43000;50.770;6.110;2022-07-23T09:18:34;12.20;;;10.23;;
57125;SDS011;43000;50.770;6.110;2022-07-23T09:21:15;10.10;;;9.10;;
57125;SDS011;43000;50.770;6.110;2022-07-23T09:23:44;9.20;;;8.18;;
57125;SDS011;43000;50.770;6.110;2022-07-23T09:26:18;12.35;;;8.38;;
57125;SDS011;43000;50.770;6.110;2022-07-23T09:28:49;10.65;;;9.05;;
57125;SDS011;43000;50.770;6.110;2022-07-23T09:31:18;13.48;;;9.77;;
57125;SDS011;43000;50.770;6.110;2022-07-23T09:33:44;11.65;;;9.07;;
57125;SDS011;43000;50.770;6.110;2022-07-23T09:36:11;10.75;;;8.95;;
57125;SDS011;43000;50.770;6.110;2022-07-23T09:38:48;12.02;;;8.82;;
57125;SDS011;43000;50.770;6.110;2022-07-23T09:41:16;9.88;;;8.70;;
57125;SDS011;43000;50.770;6.110;2022-07-23T09:43:43;14.52;;;8.93;;
57125;SDS011;43000;50.770;6.110;2022-07-23T09:46:16;9.73;;;8.73;;
57125;SDS011;43000;50.770;6.110;2022-07-23T09:48:44;10.60;;;7.90;;
57125;SDS011;43000;50.770;6.110;2022-07-23T09:51:11;15.13;;;8.85;;
57125;SDS011;43000;50.770;6.110;2022-07-23T09:53:38;7.50;;;6.28;;
57125;SDS011;43000;50.770;6.110;2022-07-23T09:56:06;9.60;;;6.40;;
57125;SDS011;43000;50.770;6.110;2022-07-23T09:58:34;9.23;;;5.70;;
57125;SDS011;43000;50.770;6.110;2022-07-23T10:01:10;7.82;;;7.03;;
57125;SDS011;43000;50.770;6.110;2022-07-23T10:03:39;9.52;;;7.35;;
57125;SDS011;43000;50.770;6.110;2022-07-23T10:06:07;8.93;;;7.03;;
57125;SDS011;43000;50.770;6.110;2022-07-23T10:08:34;8.48;;;6.30;;
57125;SDS011;43000;50.770;6.110;2022-07-23T10:11:01;11.13;;;7.22;;
57125;SDS011;43000;50.770;6.110;2022-07-23T10:13:30;9.15;;;6.55;;
57125;SDS011;43000;50.770;6.110;2022-07-23T10:16:14;10.15;;;7.32;;
57125;SDS011;43000;50.770;6.110;2022-07-23T10:18:40;8.93;;;6.57;;
57125;SDS011;43000;50.770;6.110;2022-07-23T10:21:08;6.50;;;4.97;;
57125;SDS011;43000;50.770;6.110;2022-07-23T10:23:37;8.32;;;5.38;;
57125;SDS011;43000;50.770;6.110;2022-07-23T10:26:10;7.65;;;5.45;;
57125;SDS011;43000;50.770;6.110;2022-07-23T10:28:49;7.88;;;5.82;;
57125;SDS011;43000;50.770;6.110;2022-07-23T10:31:29;4.70;;;3.63;;
57125;SDS011;43000;50.770;6.110;2022-07-23T10:34:07;7.70;;;5.10;;
57125;SDS011;43000;50.770;6.110;2022-07-23T10:36:42;6.95;;;5.43;;
57125;SDS011;43000;50.770;6.110;2022-07-23T10:39:13;6.40;;;4.25;;
57125;SDS011;43000;50.770;6.110;2022-07-23T10:41:45;12.75;;;5.32;;
57125;SDS011;43000;50.770;6.110;2022-07-23T10:44:14;11.20;;;5.20;;
57125;SDS011;43000;50.770;6.110;2022-07-23T10:46:55;7.38;;;3.67;;
57125;SDS011;43000;50.770;6.110;2022-07-23T10:49:40;4.85;;;3.00;;
57125;SDS011;43000;50.770;6.110;2022-07-23T10:52:20;7.00;;;3.63;;
57125;SDS011;43000;50.770;6.110;2022-07-23T10:54:52;6.20;;;2.88;;
57125;SDS011;43000;50.770;6.110;2022-07-23T10:57:20;6.93;;;3.58;;
57125;SDS011;43000;50.770;6.110;2022-07-23T11:02:48;6.72;;;4.22;;
57125;SDS011;43000;50.770;6.110;2022-07-23T11:05:16;4.10;;;2.97;;
57125;SDS011;43000;50.770;6.110;2022-07-23T11:10:40;5.68;;;3.30;;
57125;SDS011;43000;50.770;6.110;2022-07-23T11:13:27;4.90;;;3.13;;
57125;SDS011;43000;50.770;6.110;2022-07-23T11:16:07;10.32;;;4.47;;
57125;SDS011;43000;50.770;6.110;2022-07-23T11:18:55;4.35;;;3.20;;
57125;SDS011;43000;50.770;6.110;2022-07-23T11:24:18;4.78;;;4.28;;
57125;SDS011;43000;50.770;6.110;2022-07-23T11:26:47;7.50;;;4.38;;
57125;SDS011;43000;50.770;6.110;2022-07-23T11:32:18;4.93;;;4.20;;
57125;SDS011;43000;50.770;6.110;2022-07-23T11:35:05;5.72;;;4.05;;
57125;SDS011;43000;50.770;6.110;2022-07-23T11:37:45;4.82;;;3.05;;
57125;SDS011;43000;50.770;6.110;2022-07-23T11:40:13;8.55;;;3.72;;
57125;SDS011;43000;50.770;6.110;2022-07-23T11:42:50;8.07;;;4.00;;
57125;SDS011;43000;50.770;6.110;2022-07-23T11:45:19;6.80;;;5.05;;
57125;SDS011;43000;50.770;6.110;2022-07-23T11:47:47;5.32;;;4.05;;
57125;SDS011;43000;50.770;6.110;2022-07-23T11:50:13;5.65;;;3.92;;
57125;SDS011;43000;50.770;6.110;2022-07-23T11:52:40;6.00;;;3.88;;
57125;SDS011;43000;50.770;6.110;2022-07-23T11:55:07;5.78;;;2.90;;
57125;SDS011;43000;50.770;6.110;2022-07-23T11:57:36;5.90;;;3.63;;
57125;SDS011;43000;50.770;6.110;2022-07-23T12:00:04;4.82;;;3.63;;
57125;SDS011;43000;50.770;6.110;2022-07-23T12:02:34;5.20;;;3.90;;
57125;SDS011;43000;50.770;6.110;2022-07-23T12:05:02;5.70;;;4.05;;
57125;SDS011;43000;50.770;6.110;2022-07-23T12:07:30;10.35;;;5.68;;
57125;SDS011;43000;50.770;6.110;2022-07-23T12:09:58;6.18;;;3.45;;
57125;SDS011;43000;50.770;6.110;2022-07-23T12:12:27;9.73;;;5.78;;
57125;SDS011;43000;50.770;6.110;2022-07-23T12:15:00;8.38;;;5.45;;
57125;SDS011;43000;50.770;6.110;2022-07-23T12:17:28;5.88;;;4.55;;
57125;SDS011;43000;50.770;6.110;2022-07-23T12:19:57;6.57;;;4.10;;
57125;SDS011;43000;50.770;6.110;2022-07-23T12:22:26;5.00;;;3.63;;
57125;SDS011;43000;50.770;6.110;2022-07-23T12:25:00;6.15;;;3.80;;
57125;SDS011;43000;50.770;6.110;2022-07-23T12:27:29;8.98;;;3.53;;
57125;SDS011;43000;50.770;6.110;2022-07-23T12:29:56;6.55;;;3.47;;
57125;SDS011;43000;50.770;6.110;2022-07-23T12:32:23;9.18;;;3.95;;
57125;SDS011;43000;50.770;6.110;2022-07-23T12:35:01;5.43;;;2.90;;
57125;SDS011;43000;50.770;6.110;2022-07-23T12:37:32;8.10;;;4.57;;
57125;SDS011;43000;50.770;6.110;2022-07-23T12:45:11;9.80;;;4.80;;
57125;SDS011;43000;50.770;6.110;2022-07-23T12:48:00;5.75;;;3.88;;
57125;SDS011;43000;50.770;6.110;2022-07-23T12:50:31;4.57;;;3.60;;
57125;SDS011;43000;50.770;6.110;2022-07-23T12:53:04;8.00;;;3.63;;
57125;SDS011;43000;50.770;6.110;2022-07-23T12:55:32;5.88;;;4.15;;
57125;SDS011;43000;50.770;6.110;2022-07-23T12:58:10;6.03;;;3.53;;
57125;SDS011;43000;50.770;6.110;2022-07-23T13:00:57;5.20;;;3.63;;
57125;SDS011;43000;50.770;6.110;2022-07-23T13:03:27;4.72;;;3.38;;
57125;SDS011;43000;50.770;6.110;2022-07-23T13:05:59;5.57;;;4.60;;
57125;SDS011;43000;50.770;6.110;2022-07-23T13:08:31;6.35;;;3.70;;
57125;SDS011;43000;50.770;6.110;2022-07-23T13:11:00;4.88;;;3.47;;
57125;SDS011;43000;50.770;6.110;2022-07-23T13:13:28;4.50;;;2.95;;
57125;SDS011;43000;50.770;6.110;2022-07-23T13:15:56;5.82;;;3.90;;
57125;SDS011;43000;50.770;6.110;2022-07-23T13:18:24;6.32;;;3.97;;
57125;SDS011;43000;50.770;6.110;2022-07-23T13:20:52;8.27;;;3.90;;
57125;SDS011;43000;50.770;6.110;2022-07-23T13:23:19;4.78;;;3.58;;
57125;SDS011;43000;50.770;6.110;2022-07-23T13:25:48;6.90;;;4.20;;
57125;SDS011;43000;50.770;6.110;2022-07-23T13:28:15;4.80;;;3.55;;
57125;SDS011;43000;50.770;6.110;2022-07-23T13:30:43;6.88;;;4.00;;
57125;SDS011;43000;50.770;6.110;2022-07-23T13:33:12;4.85;;;3.85;;
57125;SDS011;43000;50.770;6.110;2022-07-23T13:35:39;5.60;;;3.70;;
57125;SDS011;43000;50.770;6.110;2022-07-23T13:38:06;5.85;;;3.53;;
57125;SDS011;43000;50.770;6.110;2022-07-23T13:40:34;8.70;;;3.88;;
57125;SDS011;43000;50.770;6.110;2022-07-23T13:43:02;6.30;;;4.13;;
57125;SDS011;43000;50.770;6.110;2022-07-23T13:45:29;5.20;;;3.35;;
57125;SDS011;43000;50.770;6.110;2022-07-23T13:47:55;5.32;;;3.92;;
57125;SDS011;43000;50.770;6.110;2022-07-23T13:50:22;5.95;;;4.05;;
57125;SDS011;43000;50.770;6.110;2022-07-23T13:52:49;7.50;;;4.10;;
57125;SDS011;43000;50.770;6.110;2022-07-23T13:55:15;5.25;;;3.47;;
57125;SDS011;43000;50.770;6.110;2022-07-23T13:57:42;5.18;;;3.47;;
57125;SDS011;43000;50.770;6.110;2022-07-23T14:00:11;7.28;;;4.30;;
57125;SDS011;43000;50.770;6.110;2022-07-23T14:02:39;4.32;;;3.25;;
57125;SDS011;43000;50.770;6.110;2022-07-23T14:05:07;5.88;;;3.20;;
57125;SDS011;43000;50.770;6.110;2022-07-23T14:07:35;7.80;;;4.53;;
57125;SDS011;43000;50.770;6.110;2022-07-23T14:10:03;9.43;;;3.13;;
57125;SDS011;43000;50.770;6.110;2022-07-23T14:12:31;6.18;;;3.25;;
57125;SDS011;43000;50.770;6.110;2022-07-23T14:14:58;5.30;;;3.63;;
57125;SDS011;43000;50.770;6.110;2022-07-23T14:17:26;6.57;;;3.95;;
57125;SDS011;43000;50.770;6.110;2022-07-23T14:19:53;6.82;;;3.97;;
57125;SDS011;43000;50.770;6.110;2022-07-23T14:22:19;6.35;;;3.85;;
57125;SDS011;43000;50.770;6.110;2022-07-23T14:24:46;5.15;;;3.70;;
57125;SDS011;43000;50.770;6.110;2022-07-23T14:27:12;5.55;;;3.80;;
57125;SDS011;43000;50.770;6.110;2022-07-23T14:29:39;5.80;;;3.78;;
57125;SDS011;43000;50.770;6.110;2022-07-23T14:32:06;5.63;;;3.60;;
57125;SDS011;43000;50.770;6.110;2022-07-23T14:34:34;4.90;;;4.40;;
57125;SDS011;43000;50.770;6.110;2022-07-23T14:37:01;6.18;;;3.90;;
57125;SDS011;43000;50.770;6.110;2022-07-23T14:39:28;3.35;;;2.85;;
57125;SDS011;43000;50.770;6.110;2022-07-23T14:41:55;4.20;;;3.25;;
57125;SDS011;43000;50.770;6.110;2022-07-23T14:44:22;4.10;;;3.42;;
57125;SDS011;43000;50.770;6.110;2022-07-23T14:46:49;7.57;;;3.60;;
57125;SDS011;43000;50.770;6.110;2022-07-23T14:49:15;6.93;;;3.70;;
57125;SDS011;43000;50.770;6.110;2022-07-23T14:51:43;6.22;;;2.95;;
57125;SDS011;43000;50.770;6.110;2022-07-23T14:54:10;5.63;;;3.60;;